sensor_id;sensor_type;location;lat;lon;timestamp;P1;durP1;ratioP1;P2;durP2;ratioP2
55065;SDS011;40964;42.114;24.220;2023-01-08T00:01:41;5.40;;;2.63;;
55065;SDS011;40964;42.114;24.220;2023-01-08T00:04:06;5.05;;;2.60;;
55065;SDS011;40964;42.114;24.220;2023-01-08T00:06:32;4.35;;;2.47;;
55065;SDS011;40964;42.114;24.220;2023-01-08T00:08:58;11.85;;;4.28;;
55065;SDS011;40964;42.114;24.220;2023-01-08T00:11:23;6.75;;;2.78;;
55065;SDS011;40964;42.114;24.220;2023-01-08T00:13:49;4.20;;;2.60;;
55065;SDS011;40964;42.114;24.220;2023-01-08T00:16:15;5.95;;;2.45;;
55065;SDS011;40964;42.114;24.220;2023-01-08T00:18:42;5.63;;;2.88;;
55065;SDS011;40964;42.114;24.220;2023-01-08T00:21:08;4.57;;;2.10;;
55065;SDS011;40964;42.114;24.220;2023-01-08T00:23:34;5.43;;;2.38;;
55065;SDS011;40964;42.114;24.220;2023-01-08T00:26:04;3.88;;;2.03;;
55065;SDS011;40964;42.114;24.220;2023-01-08T00:28:32;6.53;;;2.63;;
55065;SDS011;40964;42.114;24.220;2023-01-08T00:30:58;4.65;;;2.33;;
55065;SDS011;40964;42.114;24.220;2023-01-08T00:33:25;2.95;;;2.05;;
55065;SDS011;40964;42.114;24.220;2023-01-08T00:35:50;4.68;;;1.92;;
55065;SDS011;40964;42.114;24.220;2023-01-08T00:38:16;3.83;;;1.73;;
55065;SDS011;40964;42.114;24.220;2023-01-08T00:40:41;2.75;;;1.83;;
55065;SDS011;40964;42.114;24.220;2023-01-08T00:43:07;4.55;;;1.73;;
55065;SDS011;40964;42.114;24.220;2023-01-08T00:45:33;8.88;;;3.60;;
55065;SDS011;40964;42.114;24.220;2023-01-08T00:47:58;6.05;;;2.40;;
55065;SDS011;40964;42.114;24.220;2023-01-08T00:50:24;8.38;;;2.95;;
55065;SDS011;40964;42.114;24.220;2023-01-08T00:52:50;4.28;;;2.17;;
55065;SDS011;40964;42.114;24.220;2023-01-08T00:55:15;5.35;;;2.72;;
55065;SDS011;40964;42.114;24.220;2023-01-08T00:57:41;5.40;;;2.15;;
55065;SDS011;40964;42.114;24.220;2023-01-08T01:00:07;9.80;;;3.17;;
55065;SDS011;40964;42.114;24.220;2023-01-08T01:02:37;5.60;;;3.00;;
55065;SDS011;40964;42.114;24.220;2023-01-08T01:05:04;5.55;;;2.42;;
55065;SDS011;40964;42.114;24.220;2023-01-08T01:07:32;5.78;;;3.10;;
55065;SDS011;40964;42.114;24.220;2023-01-08T01:09:59;10.57;;;4.68;;
55065;SDS011;40964;42.114;24.220;2023-01-08T01:12:25;23.42;;;7.35;;
55065;SDS011;40964;42.114;24.220;2023-01-08T01:14:50;17.05;;;6.47;;
55065;SDS011;40964;42.114;24.220;2023-01-08T01:17:16;8.25;;;4.20;;
55065;SDS011;40964;42.114;24.220;2023-01-08T01:19:42;10.18;;;4.85;;
55065;SDS011;40964;42.114;24.220;2023-01-08T01:22:07;15.57;;;6.55;;
55065;SDS011;40964;42.114;24.220;2023-01-08T01:24:33;26.95;;;10.13;;
55065;SDS011;40964;42.114;24.220;2023-01-08T01:26:59;18.60;;;8.90;;
55065;SDS011;40964;42.114;24.220;2023-01-08T01:29:24;19.60;;;7.53;;
55065;SDS011;40964;42.114;24.220;2023-01-08T01:31:50;10.82;;;4.43;;
55065;SDS011;40964;42.114;24.220;2023-01-08T01:34:16;9.77;;;4.25;;
55065;SDS011;40964;42.114;24.220;2023-01-08T01:36:41;9.25;;;3.83;;
55065;SDS011;40964;42.114;24.220;2023-01-08T01:39:07;6.93;;;2.78;;
55065;SDS011;40964;42.114;24.220;2023-01-08T01:41:43;8.57;;;3.50;;
55065;SDS011;40964;42.114;24.220;2023-01-08T01:46:56;6.75;;;4.25;;
55065;SDS011;40964;42.114;24.220;2023-01-08T01:49:22;5.95;;;3.20;;
55065;SDS011;40964;42.114;24.220;2023-01-08T01:51:52;6.32;;;4.07;;
55065;SDS011;40964;42.114;24.220;2023-01-08T01:54:20;7.32;;;3.72;;
55065;SDS011;40964;42.114;24.220;2023-01-08T01:56:46;8.07;;;3.63;;
55065;SDS011;40964;42.114;24.220;2023-01-08T01:59:13;8.35;;;3.47;;
55065;SDS011;40964;42.114;24.220;2023-01-08T02:01:40;5.45;;;2.53;;
55065;SDS011;40964;42.114;24.220;2023-01-08T02:04:13;3.22;;;2.30;;
55065;SDS011;40964;42.114;24.220;2023-01-08T02:06:59;4.10;;;2.42;;
55065;SDS011;40964;42.114;24.220;2023-01-08T02:12:31;3.97;;;2.75;;
55065;SDS011;40964;42.114;24.220;2023-01-08T02:20:36;14.48;;;3.90;;
55065;SDS011;40964;42.114;24.220;2023-01-08T02:28:44;14.00;;;5.40;;
55065;SDS011;40964;42.114;24.220;2023-01-08T02:31:11;13.90;;;5.78;;
55065;SDS011;40964;42.114;24.220;2023-01-08T02:33:38;18.90;;;6.70;;
55065;SDS011;40964;42.114;24.220;2023-01-08T02:42:10;29.40;;;9.35;;
55065;SDS011;40964;42.114;24.220;2023-01-08T02:45:05;17.10;;;7.35;;
55065;SDS011;40964;42.114;24.220;2023-01-08T02:47:37;8.43;;;5.18;;
55065;SDS011;40964;42.114;24.220;2023-01-08T02:50:08;9.98;;;4.72;;
55065;SDS011;40964;42.114;24.220;2023-01-08T02:52:35;19.23;;;6.47;;
55065;SDS011;40964;42.114;24.220;2023-01-08T02:55:06;21.85;;;8.13;;
55065;SDS011;40964;42.114;24.220;2023-01-08T02:57:33;19.35;;;7.40;;
55065;SDS011;40964;42.114;24.220;2023-01-08T02:59:59;18.80;;;7.32;;
55065;SDS011;40964;42.114;24.220;2023-01-08T03:02:25;15.73;;;6.32;;
55065;SDS011;40964;42.114;24.220;2023-01-08T03:04:56;13.15;;;5.95;;
55065;SDS011;40964;42.114;24.220;2023-01-08T03:07:27;13.98;;;5.40;;
55065;SDS011;40964;42.114;24.220;2023-01-08T03:09:53;10.40;;;4.65;;
55065;SDS011;40964;42.114;24.220;2023-01-08T03:12:21;17.50;;;5.30;;
55065;SDS011;40964;42.114;24.220;2023-01-08T03:14:59;10.25;;;5.05;;
55065;SDS011;40964;42.114;24.220;2023-01-08T03:17:35;9.05;;;4.30;;
55065;SDS011;40964;42.114;24.220;2023-01-08T03:20:07;9.77;;;4.43;;
55065;SDS011;40964;42.114;24.220;2023-01-08T03:22:38;7.60;;;3.90;;
55065;SDS011;40964;42.114;24.220;2023-01-08T03:25:05;7.70;;;3.78;;
55065;SDS011;40964;42.114;24.220;2023-01-08T03:27:33;10.10;;;4.28;;
55065;SDS011;40964;42.114;24.220;2023-01-08T03:30:04;9.73;;;4.72;;
55065;SDS011;40964;42.114;24.220;2023-01-08T03:32:31;9.13;;;4.68;;
55065;SDS011;40964;42.114;24.220;2023-01-08T03:34:58;9.95;;;3.85;;
55065;SDS011;40964;42.114;24.220;2023-01-08T03:37:30;6.72;;;3.25;;
55065;SDS011;40964;42.114;24.220;2023-01-08T03:40:07;9.38;;;3.35;;
55065;SDS011;40964;42.114;24.220;2023-01-08T03:42:35;8.88;;;3.97;;
55065;SDS011;40964;42.114;24.220;2023-01-08T03:45:01;7.95;;;2.90;;
55065;SDS011;40964;42.114;24.220;2023-01-08T03:47:28;8.90;;;4.15;;
55065;SDS011;40964;42.114;24.220;2023-01-08T03:49:56;40.58;;;11.20;;
55065;SDS011;40964;42.114;24.220;2023-01-08T03:52:26;40.53;;;13.27;;
55065;SDS011;40964;42.114;24.220;2023-01-08T03:54:54;35.97;;;10.18;;
55065;SDS011;40964;42.114;24.220;2023-01-08T03:57:20;16.02;;;6.30;;
55065;SDS011;40964;42.114;24.220;2023-01-08T03:59:46;14.95;;;5.35;;
55065;SDS011;40964;42.114;24.220;2023-01-08T04:02:12;10.88;;;4.15;;
55065;SDS011;40964;42.114;24.220;2023-01-08T04:04:38;74.93;;;27.67;;
55065;SDS011;40964;42.114;24.220;2023-01-08T04:07:03;25.65;;;11.85;;
55065;SDS011;40964;42.114;24.220;2023-01-08T04:09:29;10.90;;;4.70;;
55065;SDS011;40964;42.114;24.220;2023-01-08T04:11:55;5.70;;;2.88;;
55065;SDS011;40964;42.114;24.220;2023-01-08T04:14:20;6.88;;;3.38;;
55065;SDS011;40964;42.114;24.220;2023-01-08T04:16:46;6.50;;;3.20;;
55065;SDS011;40964;42.114;24.220;2023-01-08T04:19:12;13.77;;;3.95;;
55065;SDS011;40964;42.114;24.220;2023-01-08T04:21:38;7.25;;;3.47;;
55065;SDS011;40964;42.114;24.220;2023-01-08T04:24:04;7.65;;;2.75;;
55065;SDS011;40964;42.114;24.220;2023-01-08T04:26:30;5.25;;;2.90;;
55065;SDS011;40964;42.114;24.220;2023-01-08T04:28:56;6.60;;;4.13;;
55065;SDS011;40964;42.114;24.220;2023-01-08T04:31:21;9.27;;;3.83;;
55065;SDS011;40964;42.114;24.220;2023-01-08T04:33:47;8.05;;;3.88;;
55065;SDS011;40964;42.114;24.220;2023-01-08T04:36:12;11.05;;;4.03;;
55065;SDS011;40964;42.114;24.220;2023-01-08T04:38:38;9.25;;;4.13;;
55065;SDS011;40964;42.114;24.220;2023-01-08T04:41:03;9.88;;;4.68;;
55065;SDS011;40964;42.114;24.220;2023-01-08T04:43:29;12.13;;;4.57;;
55065;SDS011;40964;42.114;24.220;2023-01-08T04:45:59;17.30;;;4.75;;
55065;SDS011;40964;42.114;24.220;2023-01-08T04:48:26;13.13;;;4.25;;
55065;SDS011;40964;42.114;24.220;2023-01-08T04:50:54;9.90;;;3.78;;
55065;SDS011;40964;42.114;24.220;2023-01-08T04:53:22;5.47;;;2.58;;
55065;SDS011;40964;42.114;24.220;2023-01-08T04:55:48;4.70;;;2.47;;
55065;SDS011;40964;42.114;24.220;2023-01-08T04:58:13;8.07;;;2.13;;
55065;SDS011;40964;42.114;24.220;2023-01-08T05:00:39;4.88;;;2.50;;
55065;SDS011;40964;42.114;24.220;2023-01-08T05:03:04;3.13;;;1.98;;
55065;SDS011;40964;42.114;24.220;2023-01-08T05:05:30;4.80;;;2.30;;
55065;SDS011;40964;42.114;24.220;2023-01-08T05:07:57;6.00;;;2.58;;
55065;SDS011;40964;42.114;24.220;2023-01-08T05:10:22;5.63;;;2.55;;
55065;SDS011;40964;42.114;24.220;2023-01-08T05:12:48;6.05;;;2.58;;
55065;SDS011;40964;42.114;24.220;2023-01-08T05:15:14;4.20;;;2.70;;
55065;SDS011;40964;42.114;24.220;2023-01-08T05:17:39;20.40;;;7.03;;
55065;SDS011;40964;42.114;24.220;2023-01-08T05:20:05;12.40;;;5.50;;
55065;SDS011;40964;42.114;24.220;2023-01-08T05:22:32;12.80;;;6.03;;
55065;SDS011;40964;42.114;24.220;2023-01-08T05:24:57;6.90;;;4.13;;
55065;SDS011;40964;42.114;24.220;2023-01-08T05:27:23;7.50;;;3.78;;
55065;SDS011;40964;42.114;24.220;2023-01-08T05:29:48;6.18;;;3.28;;
55065;SDS011;40964;42.114;24.220;2023-01-08T05:32:16;2.85;;;2.28;;
55065;SDS011;40964;42.114;24.220;2023-01-08T05:34:43;7.55;;;3.55;;
55065;SDS011;40964;42.114;24.220;2023-01-08T05:37:09;5.88;;;3.03;;
55065;SDS011;40964;42.114;24.220;2023-01-08T05:39:34;11.93;;;4.55;;
55065;SDS011;40964;42.114;24.220;2023-01-08T05:42:01;12.18;;;3.42;;
55065;SDS011;40964;42.114;24.220;2023-01-08T05:44:26;7.93;;;3.75;;
55065;SDS011;40964;42.114;24.220;2023-01-08T05:46:52;6.32;;;3.65;;
55065;SDS011;40964;42.114;24.220;2023-01-08T05:49:18;12.20;;;5.45;;
55065;SDS011;40964;42.114;24.220;2023-01-08T05:51:45;18.05;;;6.97;;
55065;SDS011;40964;42.114;24.220;2023-01-08T05:54:11;21.30;;;7.82;;
55065;SDS011;40964;42.114;24.220;2023-01-08T05:56:37;24.02;;;7.20;;
55065;SDS011;40964;42.114;24.220;2023-01-08T05:59:03;20.02;;;8.30;;
55065;SDS011;40964;42.114;24.220;2023-01-08T06:01:28;16.15;;;6.75;;
55065;SDS011;40964;42.114;24.220;2023-01-08T06:03:54;17.40;;;6.97;;
55065;SDS011;40964;42.114;24.220;2023-01-08T06:06:20;19.17;;;7.55;;
55065;SDS011;40964;42.114;24.220;2023-01-08T06:08:46;19.83;;;9.15;;
55065;SDS011;40964;42.114;24.220;2023-01-08T06:11:12;22.85;;;8.20;;
55065;SDS011;40964;42.114;24.220;2023-01-08T06:13:40;15.13;;;6.80;;
55065;SDS011;40964;42.114;24.220;2023-01-08T06:16:06;16.60;;;4.93;;
55065;SDS011;40964;42.114;24.220;2023-01-08T06:18:32;14.15;;;5.63;;
55065;SDS011;40964;42.114;24.220;2023-01-08T06:20:57;9.02;;;4.82;;
55065;SDS011;40964;42.114;24.220;2023-01-08T06:23:23;12.38;;;5.22;;
55065;SDS011;40964;42.114;24.220;2023-01-08T06:25:52;18.85;;;6.32;;
55065;SDS011;40964;42.114;24.220;2023-01-08T06:28:21;12.82;;;6.00;;
55065;SDS011;40964;42.114;24.220;2023-01-08T06:30:47;15.27;;;6.35;;
55065;SDS011;40964;42.114;24.220;2023-01-08T06:33:13;21.90;;;6.82;;
55065;SDS011;40964;42.114;24.220;2023-01-08T06:35:39;16.08;;;7.80;;
55065;SDS011;40964;42.114;24.220;2023-01-08T06:38:04;27.13;;;11.55;;
55065;SDS011;40964;42.114;24.220;2023-01-08T06:40:30;50.03;;;17.65;;
55065;SDS011;40964;42.114;24.220;2023-01-08T06:42:59;38.03;;;14.50;;
55065;SDS011;40964;42.114;24.220;2023-01-08T06:45:26;27.60;;;10.20;;
55065;SDS011;40964;42.114;24.220;2023-01-08T06:47:51;26.83;;;10.73;;
55065;SDS011;40964;42.114;24.220;2023-01-08T06:50:17;24.27;;;9.30;;
55065;SDS011;40964;42.114;24.220;2023-01-08T06:52:42;19.42;;;8.60;;
55065;SDS011;40964;42.114;24.220;2023-01-08T06:55:08;20.10;;;8.55;;
55065;SDS011;40964;42.114;24.220;2023-01-08T06:57:33;23.30;;;7.60;;
55065;SDS011;40964;42.114;24.220;2023-01-08T06:59:59;15.60;;;6.13;;
55065;SDS011;40964;42.114;24.220;2023-01-08T07:02:24;12.00;;;5.90;;
55065;SDS011;40964;42.114;24.220;2023-01-08T07:04:50;14.18;;;5.22;;
55065;SDS011;40964;42.114;24.220;2023-01-08T07:07:15;9.02;;;4.90;;
55065;SDS011;40964;42.114;24.220;2023-01-08T07:09:41;12.48;;;5.18;;
55065;SDS011;40964;42.114;24.220;2023-01-08T07:12:10;11.20;;;5.05;;
55065;SDS011;40964;42.114;24.220;2023-01-08T07:14:39;10.88;;;5.28;;
55065;SDS011;40964;42.114;24.220;2023-01-08T07:17:05;18.58;;;6.65;;
55065;SDS011;40964;42.114;24.220;2023-01-08T07:19:31;11.70;;;5.95;;
55065;SDS011;40964;42.114;24.220;2023-01-08T07:21:57;15.07;;;7.07;;
55065;SDS011;40964;42.114;24.220;2023-01-08T07:24:22;22.17;;;7.70;;
55065;SDS011;40964;42.114;24.220;2023-01-08T07:26:48;27.38;;;10.45;;
55065;SDS011;40964;42.114;24.220;2023-01-08T07:29:13;32.72;;;11.30;;
55065;SDS011;40964;42.114;24.220;2023-01-08T07:31:39;15.75;;;7.00;;
55065;SDS011;40964;42.114;24.220;2023-01-08T07:34:04;25.05;;;9.88;;
55065;SDS011;40964;42.114;24.220;2023-01-08T07:36:30;14.20;;;6.93;;
55065;SDS011;40964;42.114;24.220;2023-01-08T07:38:55;12.65;;;6.30;;
55065;SDS011;40964;42.114;24.220;2023-01-08T07:41:21;22.73;;;7.90;;
55065;SDS011;40964;42.114;24.220;2023-01-08T07:43:46;13.38;;;6.28;;
55065;SDS011;40964;42.114;24.220;2023-01-08T07:46:12;17.25;;;6.63;;
55065;SDS011;40964;42.114;24.220;2023-01-08T07:48:38;14.18;;;6.00;;
55065;SDS011;40964;42.114;24.220;2023-01-08T07:51:04;14.18;;;6.63;;
55065;SDS011;40964;42.114;24.220;2023-01-08T07:53:31;12.25;;;5.95;;
55065;SDS011;40964;42.114;24.220;2023-01-08T07:56:04;14.35;;;6.47;;
55065;SDS011;40964;42.114;24.220;2023-01-08T07:58:31;15.55;;;5.75;;
55065;SDS011;40964;42.114;24.220;2023-01-08T08:00:57;13.95;;;5.88;;
55065;SDS011;40964;42.114;24.220;2023-01-08T08:03:23;23.67;;;9.00;;
55065;SDS011;40964;42.114;24.220;2023-01-08T08:05:49;21.50;;;9.82;;
55065;SDS011;40964;42.114;24.220;2023-01-08T08:08:15;15.73;;;7.35;;
55065;SDS011;40964;42.114;24.220;2023-01-08T08:10:41;16.98;;;7.63;;
55065;SDS011;40964;42.114;24.220;2023-01-08T08:13:07;16.30;;;6.90;;
55065;SDS011;40964;42.114;24.220;2023-01-08T08:15:34;13.23;;;6.13;;
55065;SDS011;40964;42.114;24.220;2023-01-08T08:18:00;11.82;;;5.88;;
55065;SDS011;40964;42.114;24.220;2023-01-08T08:20:26;15.45;;;7.20;;
55065;SDS011;40964;42.114;24.220;2023-01-08T08:22:51;13.45;;;6.15;;
55065;SDS011;40964;42.114;24.220;2023-01-08T08:25:17;18.88;;;6.68;;
55065;SDS011;40964;42.114;24.220;2023-01-08T08:27:43;13.48;;;6.38;;
55065;SDS011;40964;42.114;24.220;2023-01-08T08:30:09;16.35;;;7.18;;
55065;SDS011;40964;42.114;24.220;2023-01-08T08:32:35;19.88;;;7.68;;
55065;SDS011;40964;42.114;24.220;2023-01-08T08:35:01;12.35;;;6.55;;
55065;SDS011;40964;42.114;24.220;2023-01-08T08:37:30;18.25;;;8.13;;
55065;SDS011;40964;42.114;24.220;2023-01-08T08:39:55;19.55;;;8.27;;
55065;SDS011;40964;42.114;24.220;2023-01-08T08:42:21;13.27;;;6.68;;
55065;SDS011;40964;42.114;24.220;2023-01-08T08:44:46;14.43;;;7.00;;
55065;SDS011;40964;42.114;24.220;2023-01-08T08:47:12;17.40;;;6.82;;
55065;SDS011;40964;42.114;24.220;2023-01-08T08:49:37;14.95;;;7.32;;
55065;SDS011;40964;42.114;24.220;2023-01-08T08:52:03;12.93;;;7.13;;
55065;SDS011;40964;42.114;24.220;2023-01-08T08:54:29;13.30;;;7.03;;
55065;SDS011;40964;42.114;24.220;2023-01-08T08:56:54;15.98;;;6.53;;
55065;SDS011;40964;42.114;24.220;2023-01-08T08:59:20;15.52;;;6.75;;
55065;SDS011;40964;42.114;24.220;2023-01-08T09:01:45;15.20;;;5.93;;
55065;SDS011;40964;42.114;24.220;2023-01-08T09:04:11;17.73;;;8.13;;
55065;SDS011;40964;42.114;24.220;2023-01-08T09:06:36;13.23;;;6.50;;
55065;SDS011;40964;42.114;24.220;2023-01-08T09:09:02;15.02;;;7.30;;
55065;SDS011;40964;42.114;24.220;2023-01-08T09:11:27;13.55;;;6.93;;
55065;SDS011;40964;42.114;24.220;2023-01-08T09:13:53;12.50;;;6.30;;
55065;SDS011;40964;42.114;24.220;2023-01-08T09:16:18;13.95;;;5.85;;
55065;SDS011;40964;42.114;24.220;2023-01-08T09:18:44;12.90;;;5.63;;
55065;SDS011;40964;42.114;24.220;2023-01-08T09:21:09;13.65;;;5.38;;
55065;SDS011;40964;42.114;24.220;2023-01-08T09:23:35;10.88;;;4.90;;
55065;SDS011;40964;42.114;24.220;2023-01-08T09:26:01;12.68;;;5.13;;
55065;SDS011;40964;42.114;24.220;2023-01-08T09:28:28;10.73;;;4.72;;
55065;SDS011;40964;42.114;24.220;2023-01-08T09:30:53;9.30;;;4.53;;
55065;SDS011;40964;42.114;24.220;2023-01-08T09:33:19;8.77;;;4.55;;
55065;SDS011;40964;42.114;24.220;2023-01-08T09:35:44;8.80;;;5.22;;
55065;SDS011;40964;42.114;24.220;2023-01-08T09:38:10;13.68;;;5.22;;
55065;SDS011;40964;42.114;24.220;2023-01-08T09:40:40;14.07;;;5.63;;
55065;SDS011;40964;42.114;24.220;2023-01-08T09:43:13;12.65;;;5.10;;
55065;SDS011;40964;42.114;24.220;2023-01-08T09:45:42;9.93;;;4.50;;
55065;SDS011;40964;42.114;24.220;2023-01-08T09:48:14;7.97;;;4.68;;
55065;SDS011;40964;42.114;24.220;2023-01-08T09:50:42;11.18;;;4.47;;
55065;SDS011;40964;42.114;24.220;2023-01-08T09:53:12;10.82;;;5.13;;
55065;SDS011;40964;42.114;24.220;2023-01-08T09:55:39;10.70;;;5.03;;
55065;SDS011;40964;42.114;24.220;2023-01-08T09:58:29;10.13;;;4.78;;
55065;SDS011;40964;42.114;24.220;2023-01-08T10:01:02;11.45;;;4.82;;
55065;SDS011;40964;42.114;24.220;2023-01-08T10:03:33;10.63;;;5.03;;
55065;SDS011;40964;42.114;24.220;2023-01-08T10:06:08;8.80;;;4.63;;
55065;SDS011;40964;42.114;24.220;2023-01-08T10:08:34;8.93;;;4.57;;
55065;SDS011;40964;42.114;24.220;2023-01-08T10:11:00;8.80;;;4.80;;
55065;SDS011;40964;42.114;24.220;2023-01-08T10:13:27;7.72;;;4.47;;
55065;SDS011;40964;42.114;24.220;2023-01-08T10:15:52;8.48;;;4.47;;
55065;SDS011;40964;42.114;24.220;2023-01-08T10:18:20;10.70;;;4.13;;
55065;SDS011;40964;42.114;24.220;2023-01-08T10:20:48;12.80;;;4.47;;
55065;SDS011;40964;42.114;24.220;2023-01-08T10:23:14;8.43;;;4.43;;
55065;SDS011;40964;42.114;24.220;2023-01-08T10:25:49;9.23;;;4.45;;
55065;SDS011;40964;42.114;24.220;2023-01-08T10:28:18;8.57;;;4.72;;
55065;SDS011;40964;42.114;24.220;2023-01-08T10:30:46;9.63;;;4.88;;
55065;SDS011;40964;42.114;24.220;2023-01-08T10:33:29;11.00;;;4.82;;
55065;SDS011;40964;42.114;24.220;2023-01-08T10:36:03;10.50;;;4.45;;
55065;SDS011;40964;42.114;24.220;2023-01-08T10:38:35;7.90;;;4.32;;
55065;SDS011;40964;42.114;24.220;2023-01-08T10:41:09;7.47;;;4.43;;
55065;SDS011;40964;42.114;24.220;2023-01-08T10:43:41;9.57;;;3.40;;
55065;SDS011;40964;42.114;24.220;2023-01-08T10:46:22;8.23;;;4.00;;
55065;SDS011;40964;42.114;24.220;2023-01-08T10:48:50;5.18;;;3.03;;
55065;SDS011;40964;42.114;24.220;2023-01-08T10:51:22;5.97;;;3.58;;
55065;SDS011;40964;42.114;24.220;2023-01-08T10:53:49;7.88;;;4.22;;
55065;SDS011;40964;42.114;24.220;2023-01-08T10:56:22;7.47;;;4.10;;
55065;SDS011;40964;42.114;24.220;2023-01-08T10:59:04;8.73;;;4.35;;
55065;SDS011;40964;42.114;24.220;2023-01-08T11:01:29;7.97;;;4.70;;
55065;SDS011;40964;42.114;24.220;2023-01-08T11:04:00;5.63;;;3.70;;
55065;SDS011;40964;42.114;24.220;2023-01-08T11:06:31;7.53;;;3.80;;
55065;SDS011;40964;42.114;24.220;2023-01-08T11:09:02;12.57;;;4.30;;
55065;SDS011;40964;42.114;24.220;2023-01-08T11:11:38;7.68;;;3.92;;
55065;SDS011;40964;42.114;24.220;2023-01-08T11:16:47;8.97;;;4.47;;
55065;SDS011;40964;42.114;24.220;2023-01-08T11:19:22;8.40;;;3.63;;
55065;SDS011;40964;42.114;24.220;2023-01-08T11:21:53;7.10;;;3.88;;
55065;SDS011;40964;42.114;24.220;2023-01-08T11:24:26;8.55;;;4.32;;
55065;SDS011;40964;42.114;24.220;2023-01-08T11:27:02;7.70;;;4.00;;
55065;SDS011;40964;42.114;24.220;2023-01-08T11:37:27;7.78;;;4.35;;
55065;SDS011;40964;42.114;24.220;2023-01-08T11:39:54;6.97;;;3.38;;
55065;SDS011;40964;42.114;24.220;2023-01-08T12:03:07;9.38;;;4.07;;
55065;SDS011;40964;42.114;24.220;2023-01-08T12:05:48;7.00;;;4.03;;
55065;SDS011;40964;42.114;24.220;2023-01-08T12:08:28;6.63;;;3.47;;
55065;SDS011;40964;42.114;24.220;2023-01-08T12:37:04;6.88;;;3.83;;
55065;SDS011;40964;42.114;24.220;2023-01-08T12:42:37;9.27;;;4.40;;
55065;SDS011;40964;42.114;24.220;2023-01-08T12:45:11;9.68;;;4.75;;
55065;SDS011;40964;42.114;24.220;2023-01-08T12:47:40;9.15;;;4.60;;
55065;SDS011;40964;42.114;24.220;2023-01-08T12:53:43;9.80;;;5.15;;
55065;SDS011;40964;42.114;24.220;2023-01-08T13:03:41;11.07;;;4.88;;
55065;SDS011;40964;42.114;24.220;2023-01-08T13:06:14;12.90;;;5.18;;
55065;SDS011;40964;42.114;24.220;2023-01-08T13:08:49;7.55;;;4.13;;
55065;SDS011;40964;42.114;24.220;2023-01-08T13:11:31;10.50;;;4.32;;
55065;SDS011;40964;42.114;24.220;2023-01-08T13:14:08;11.43;;;5.07;;
55065;SDS011;40964;42.114;24.220;2023-01-08T13:16:39;6.25;;;4.07;;
55065;SDS011;40964;42.114;24.220;2023-01-08T13:19:17;7.45;;;4.30;;
55065;SDS011;40964;42.114;24.220;2023-01-08T13:21:52;11.65;;;4.63;;
55065;SDS011;40964;42.114;24.220;2023-01-08T13:24:39;11.77;;;4.55;;
55065;SDS011;40964;42.114;24.220;2023-01-08T13:27:10;11.27;;;4.70;;
55065;SDS011;40964;42.114;24.220;2023-01-08T13:29:57;10.18;;;4.60;;
55065;SDS011;40964;42.114;24.220;2023-01-08T13:32:24;6.90;;;4.28;;
55065;SDS011;40964;42.114;24.220;2023-01-08T13:37:39;8.85;;;4.38;;
55065;SDS011;40964;42.114;24.220;2023-01-08T13:43:00;11.20;;;3.97;;
55065;SDS011;40964;42.114;24.220;2023-01-08T13:45:29;8.23;;;4.70;;
55065;SDS011;40964;42.114;24.220;2023-01-08T13:47:55;13.30;;;7.20;;
55065;SDS011;40964;42.114;24.220;2023-01-08T13:50:22;15.55;;;8.43;;
55065;SDS011;40964;42.114;24.220;2023-01-08T13:52:56;19.20;;;8.15;;
55065;SDS011;40964;42.114;24.220;2023-01-08T13:57:56;15.52;;;8.30;;
55065;SDS011;40964;42.114;24.220;2023-01-08T14:02:55;20.60;;;8.48;;
55065;SDS011;40964;42.114;24.220;2023-01-08T14:07:47;14.45;;;7.80;;
55065;SDS011;40964;42.114;24.220;2023-01-08T14:10:13;12.68;;;6.80;;
55065;SDS011;40964;42.114;24.220;2023-01-08T14:12:40;9.82;;;6.10;;
55065;SDS011;40964;42.114;24.220;2023-01-08T14:15:07;12.75;;;6.53;;
55065;SDS011;40964;42.114;24.220;2023-01-08T14:17:53;16.77;;;7.90;;
55065;SDS011;40964;42.114;24.220;2023-01-08T14:20:31;17.00;;;8.60;;
55065;SDS011;40964;42.114;24.220;2023-01-08T14:23:00;11.35;;;6.57;;
55065;SDS011;40964;42.114;24.220;2023-01-08T14:25:26;12.60;;;6.40;;
55065;SDS011;40964;42.114;24.220;2023-01-08T14:28:00;14.63;;;7.22;;
55065;SDS011;40964;42.114;24.220;2023-01-08T14:30:27;15.90;;;7.07;;
55065;SDS011;40964;42.114;24.220;2023-01-08T14:32:54;14.68;;;8.07;;
55065;SDS011;40964;42.114;24.220;2023-01-08T14:35:31;14.65;;;7.90;;
55065;SDS011;40964;42.114;24.220;2023-01-08T14:37:59;16.95;;;8.48;;
55065;SDS011;40964;42.114;24.220;2023-01-08T14:40:30;22.70;;;9.85;;
55065;SDS011;40964;42.114;24.220;2023-01-08T14:43:00;17.02;;;7.47;;
55065;SDS011;40964;42.114;24.220;2023-01-08T14:45:31;13.60;;;6.25;;
55065;SDS011;40964;42.114;24.220;2023-01-08T14:50:59;11.85;;;5.70;;
55065;SDS011;40964;42.114;24.220;2023-01-08T14:53:29;15.75;;;7.13;;
55065;SDS011;40964;42.114;24.220;2023-01-08T14:55:58;19.05;;;8.40;;
55065;SDS011;40964;42.114;24.220;2023-01-08T14:58:26;12.95;;;7.40;;
55065;SDS011;40964;42.114;24.220;2023-01-08T15:00:56;16.63;;;8.23;;
55065;SDS011;40964;42.114;24.220;2023-01-08T15:03:28;17.77;;;8.90;;
55065;SDS011;40964;42.114;24.220;2023-01-08T15:05:54;19.52;;;7.72;;
55065;SDS011;40964;42.114;24.220;2023-01-08T15:08:24;15.13;;;6.57;;
55065;SDS011;40964;42.114;24.220;2023-01-08T15:10:58;9.65;;;5.22;;
55065;SDS011;40964;42.114;24.220;2023-01-08T15:13:28;13.43;;;7.15;;
55065;SDS011;40964;42.114;24.220;2023-01-08T15:15:56;19.42;;;8.82;;
55065;SDS011;40964;42.114;24.220;2023-01-08T15:18:25;21.38;;;8.70;;
55065;SDS011;40964;42.114;24.220;2023-01-08T15:20:50;18.80;;;8.82;;
55065;SDS011;40964;42.114;24.220;2023-01-08T15:23:22;19.70;;;8.77;;
55065;SDS011;40964;42.114;24.220;2023-01-08T15:25:51;23.80;;;8.93;;
55065;SDS011;40964;42.114;24.220;2023-01-08T15:28:17;17.23;;;7.95;;
55065;SDS011;40964;42.114;24.220;2023-01-08T15:30:45;18.95;;;8.90;;
55065;SDS011;40964;42.114;24.220;2023-01-08T15:33:16;24.15;;;8.50;;
55065;SDS011;40964;42.114;24.220;2023-01-08T15:35:44;22.63;;;10.05;;
55065;SDS011;40964;42.114;24.220;2023-01-08T15:38:10;18.02;;;8.55;;
55065;SDS011;40964;42.114;24.220;2023-01-08T15:40:36;23.15;;;8.68;;
55065;SDS011;40964;42.114;24.220;2023-01-08T15:43:02;20.27;;;7.93;;
55065;SDS011;40964;42.114;24.220;2023-01-08T15:45:34;25.23;;;10.10;;
55065;SDS011;40964;42.114;24.220;2023-01-08T15:48:01;20.50;;;8.02;;
55065;SDS011;40964;42.114;24.220;2023-01-08T15:50:27;23.48;;;8.43;;
55065;SDS011;40964;42.114;24.220;2023-01-08T15:52:53;25.20;;;10.35;;
55065;SDS011;40964;42.114;24.220;2023-01-08T15:55:25;41.03;;;16.02;;
55065;SDS011;40964;42.114;24.220;2023-01-08T15:57:51;36.55;;;12.52;;
55065;SDS011;40964;42.114;24.220;2023-01-08T16:00:17;28.27;;;11.50;;
55065;SDS011;40964;42.114;24.220;2023-01-08T16:02:47;20.90;;;10.43;;
55065;SDS011;40964;42.114;24.220;2023-01-08T16:05:14;19.70;;;8.43;;
55065;SDS011;40964;42.114;24.220;2023-01-08T16:07:44;16.75;;;8.15;;
55065;SDS011;40964;42.114;24.220;2023-01-08T16:10:10;20.65;;;8.30;;
55065;SDS011;40964;42.114;24.220;2023-01-08T16:12:36;18.40;;;8.13;;
55065;SDS011;40964;42.114;24.220;2023-01-08T16:15:02;21.33;;;9.10;;
55065;SDS011;40964;42.114;24.220;2023-01-08T16:17:28;14.90;;;6.93;;
55065;SDS011;40964;42.114;24.220;2023-01-08T16:19:54;14.88;;;5.93;;
55065;SDS011;40964;42.114;24.220;2023-01-08T16:22:19;10.93;;;5.28;;